Wetterdaten: Woche 02.08.10 - 08.08.10 (KW31)
Datum Zeit Temp. A. Feuchte A. Luftdruck Regen Wind Richtung Taupunkt Windchill Windben
02.08.2010 00:00 18,5 C 78 % 1015,3 hPa 0,0 l/m 0,0 km/h N 14,5 C 18,5 C 0,4 km/h
02.08.2010 01:00 17,5 C 80 % 1015,2 hPa 0,0 l/m 0,0 km/h N 14,1 C 17,5 C 0,0 km/h
02.08.2010 02:00 16,8 C 83 % 1014,8 hPa 0,0 l/m 0,0 km/h N 13,8 C 16,8 C 0,0 km/h
02.08.2010 03:00 16,3 C 85 % 1014,4 hPa 0,0 l/m 0,1 km/h N 13,8 C 16,3 C 1,2 km/h
02.08.2010 04:00 16,3 C 85 % 1014,4 hPa 0,0 l/m 0,0 km/h N 13,7 C 16,3 C 1,6 km/h
02.08.2010 05:00 16,0 C 85 % 1014,2 hPa 0,0 l/m 0,0 km/h N 13,5 C 16,0 C 0,0 km/h
02.08.2010 06:00 15,9 C 86 % 1014,4 hPa 0,0 l/m 0,1 km/h N 13,5 C 15,9 C 1,6 km/h
02.08.2010 07:00 17,0 C 87 % 1015,1 hPa 0,0 l/m 0,3 km/h N 14,8 C 17,0 C 2,8 km/h
02.08.2010 08:00 19,1 C 85 % 1015,1 hPa 0,0 l/m 0,6 km/h N 16,4 C 19,1 C 3,2 km/h
02.08.2010 09:00 21,7 C 76 % 1015,1 hPa 0,0 l/m 1,3 km/h N-NW 17,2 C 21,7 C 6,4 km/h
02.08.2010 10:00 23,8 C 69 % 1014,9 hPa 0,0 l/m 1,6 km/h N-NW 17,8 C 23,8 C 8,0 km/h
02.08.2010 11:00 27,0 C 61 % 1014,4 hPa 0,0 l/m 1,9 km/h N-NW 18,7 C 27,0 C 8,1 km/h
02.08.2010 12:00 29,3 C 53 % 1014,0 hPa 0,0 l/m 2,1 km/h NW 18,7 C 29,3 C 7,2 km/h
02.08.2010 13:00 30,6 C 53 % 1013,5 hPa 0,0 l/m 0,7 km/h N 20,0 C 30,6 C 5,6 km/h
02.08.2010 14:00 30,9 C 51 % 1012,8 hPa 0,0 l/m 0,9 km/h NO 19,6 C 30,9 C 3,2 km/h
02.08.2010 15:00 30,8 C 51 % 1012,4 hPa 0,0 l/m 1,3 km/h O-SO 19,3 C 30,8 C 4,8 km/h
02.08.2010 16:00 30,4 C 51 % 1011,8 hPa 0,0 l/m 1,1 km/h S-SO 19,1 C 30,4 C 6,4 km/h
02.08.2010 17:00 30,1 C 50 % 1011,2 hPa 0,0 l/m 0,9 km/h O 18,5 C 30,1 C 4,8 km/h
02.08.2010 18:00 29,1 C 52 % 1010,6 hPa 0,0 l/m 1,0 km/h N 18,1 C 29,1 C 5,2 km/h
02.08.2010 19:00 28,0 C 54 % 1010,3 hPa 0,0 l/m 0,3 km/h N 17,9 C 28,0 C 2,4 km/h
02.08.2010 20:00 26,4 C 60 % 1009,9 hPa 0,0 l/m 0,0 km/h N 17,9 C 26,4 C 1,2 km/h
02.08.2010 21:00 24,8 C 65 % 1010,4 hPa 0,0 l/m 0,1 km/h N 17,8 C 24,8 C 2,0 km/h
02.08.2010 22:00 23,3 C 69 % 1010,8 hPa 0,0 l/m 1,1 km/h NW 17,2 C 23,3 C 5,2 km/h
02.08.2010 23:00 22,4 C 69 % 1010,9 hPa 0,0 l/m 0,4 km/h N 16,3 C 22,4 C 6,0 km/h
03.08.2010 00:00 21,8 C 72 % 1010,9 hPa 0,0 l/m 0,7 km/h W-NW 16,4 C 21,8 C 6,4 km/h
03.08.2010 01:00 21,5 C 72 % 1010,5 hPa 0,0 l/m 1,2 km/h NO 16,1 C 21,5 C 8,8 km/h
03.08.2010 02:00 21,0 C 73 % 1010,1 hPa 0,0 l/m 0,3 km/h N 15,8 C 21,0 C 3,6 km/h
03.08.2010 03:00 20,4 C 74 % 1009,8 hPa 0,0 l/m 0,6 km/h N 15,6 C 20,4 C 5,2 km/h
03.08.2010 04:00 20,1 C 75 % 1009,5 hPa 0,0 l/m 1,2 km/h S-SW 15,5 C 20,1 C 7,6 km/h
03.08.2010 05:00 20,3 C 75 % 1009,4 hPa 0,0 l/m 1,2 km/h W-SW 15,7 C 20,3 C 8,4 km/h
03.08.2010 06:00 20,6 C 73 % 1009,5 hPa 0,0 l/m 2,1 km/h S 15,5 C 20,6 C 11,7 km/h
03.08.2010 07:00 20,7 C 75 % 1009,7 hPa 0,0 l/m 1,8 km/h SO 16,0 C 20,7 C 8,4 km/h
03.08.2010 08:00 20,5 C 78 % 1009,8 hPa 1,0 l/m 1,6 km/h S 16,6 C 20,5 C 5,6 km/h
03.08.2010 09:00 19,9 C 79 % 1010,2 hPa 0,3 l/m 4,0 km/h SW 16,1 C 19,9 C 20,9 km/h
03.08.2010 10:00 20,3 C 73 % 1010,4 hPa 0,0 l/m 4,7 km/h W-NW 15,2 C 20,3 C 22,5 km/h
03.08.2010 11:00 20,2 C 74 % 1010,8 hPa 0,0 l/m 3,9 km/h SO 15,3 C 20,2 C 16,1 km/h
03.08.2010 12:00 20,3 C 73 % 1011,2 hPa 0,0 l/m 4,3 km/h NW 15,2 C 20,3 C 16,9 km/h
03.08.2010 13:00 20,1 C 74 % 1011,1 hPa 0,0 l/m 3,3 km/h S 15,3 C 20,1 C 13,7 km/h
03.08.2010 14:00 19,9 C 77 % 1010,9 hPa 0,0 l/m 2,1 km/h NW 15,7 C 19,9 C 9,3 km/h
03.08.2010 15:00 21,8 C 70 % 1010,6 hPa 0,0 l/m 3,6 km/h NW 16,1 C 21,8 C 14,9 km/h
03.08.2010 16:00 23,7 C 64 % 1010,4 hPa 0,0 l/m 5,3 km/h NW 16,3 C 23,7 C 18,5 km/h
03.08.2010 17:00 22,9 C 65 % 1010,7 hPa 0,0 l/m 3,3 km/h SW 15,8 C 22,9 C 16,5 km/h
03.08.2010 18:00 21,6 C 66 % 1011,0 hPa 0,0 l/m 2,8 km/h O 14,9 C 21,6 C 13,7 km/h
03.08.2010 19:00 20,3 C 65 % 1011,5 hPa 0,0 l/m 2,5 km/h NW 13,5 C 20,3 C 11,3 km/h
03.08.2010 20:00 19,7 C 70 % 1011,7 hPa 0,0 l/m 2,4 km/h O-SO 14,1 C 19,7 C 10,5 km/h
03.08.2010 21:00 19,6 C 72 % 1011,8 hPa 0,0 l/m 4,9 km/h O 14,5 C 19,6 C 19,7 km/h
03.08.2010 22:00 19,2 C 72 % 1012,3 hPa 0,0 l/m 4,2 km/h NW 13,9 C 19,2 C 21,7 km/h
03.08.2010 23:00 18,4 C 71 % 1012,3 hPa 0,0 l/m 3,5 km/h N-NW 12,9 C 18,4 C 14,5 km/h
04.08.2010 00:00 18,4 C 73 % 1012,2 hPa 0,0 l/m 4,4 km/h N-NW 13,5 C 18,4 C 15,7 km/h
04.08.2010 01:00 18,3 C 74 % 1012,5 hPa 0,0 l/m 3,2 km/h N-NW 13,5 C 18,3 C 11,3 km/h
04.08.2010 02:00 17,7 C 76 % 1012,4 hPa 0,0 l/m 2,9 km/h NW 13,5 C 17,7 C 10,4 km/h
04.08.2010 03:00 17,5 C 78 % 1012,6 hPa 0,0 l/m 2,9 km/h NW 13,5 C 17,5 C 7,2 km/h
04.08.2010 04:00 17,4 C 78 % 1012,2 hPa 0,0 l/m 2,7 km/h NW 13,4 C 17,4 C 10,9 km/h
04.08.2010 05:00 17,0 C 78 % 1012,6 hPa 0,0 l/m 2,6 km/h NW 13,1 C 17,0 C 9,7 km/h
04.08.2010 06:00 16,5 C 79 % 1012,6 hPa 0,0 l/m 2,9 km/h O-SO 12,9 C 16,5 C 10,1 km/h
04.08.2010 07:00 16,8 C 79 % 1012,7 hPa 0,0 l/m 4,7 km/h NW 13,1 C 16,8 C 15,7 km/h
04.08.2010 08:00 17,1 C 78 % 1012,8 hPa 0,0 l/m 5,4 km/h N-NW 13,2 C 17,2 C 17,7 km/h
04.08.2010 09:00 18,0 C 73 % 1013,0 hPa 0,0 l/m 6,8 km/h NW 13,1 C 17,6 C 16,9 km/h
04.08.2010 10:00 19,0 C 69 % 1012,7 hPa 0,0 l/m 5,8 km/h N 13,2 C 19,0 C 13,7 km/h
04.08.2010 11:00 21,0 C 64 % 1012,3 hPa 0,0 l/m 5,7 km/h NW 14,0 C 20,9 C 14,1 km/h
04.08.2010 12:00 22,6 C 59 % 1011,6 hPa 0,0 l/m 5,8 km/h N-NW 14,3 C 22,6 C 16,5 km/h
04.08.2010 13:00 23,2 C 55 % 1011,0 hPa 0,0 l/m 5,6 km/h NO 13,7 C 23,2 C 14,1 km/h
04.08.2010 14:00 24,8 C 49 % 1010,6 hPa 0,0 l/m 4,1 km/h NW 13,3 C 24,8 C 11,7 km/h
04.08.2010 15:00 25,3 C 48 % 1010,2 hPa 0,0 l/m 3,7 km/h N-NW 13,4 C 25,3 C 10,9 km/h
04.08.2010 16:00 25,9 C 45 % 1009,8 hPa 0,0 l/m 3,2 km/h NW 12,8 C 25,9 C 12,5 km/h
04.08.2010 17:00 26,0 C 44 % 1009,3 hPa 0,0 l/m 2,3 km/h W 12,7 C 26,0 C 8,0 km/h
04.08.2010 18:00 24,4 C 48 % 1009,0 hPa 0,0 l/m 1,5 km/h W-NW 12,6 C 24,4 C 6,8 km/h
04.08.2010 19:00 23,1 C 52 % 1008,9 hPa 0,0 l/m 1,0 km/h N 12,5 C 23,1 C 3,6 km/h
04.08.2010 20:00 21,9 C 57 % 1009,0 hPa 0,0 l/m 0,1 km/h N 12,8 C 21,9 C 0,8 km/h
04.08.2010 21:00 19,7 C 63 % 1009,4 hPa 0,0 l/m 0,0 km/h N 12,5 C 19,7 C 2,0 km/h
04.08.2010 22:00 18,2 C 69 % 1009,4 hPa 0,0 l/m 0,1 km/h N 12,3 C 18,2 C 1,6 km/h
04.08.2010 23:00 17,4 C 71 % 1009,3 hPa 0,0 l/m 0,2 km/h N 12,1 C 17,4 C 4,0 km/h
05.08.2010 00:00 16,6 C 74 % 1009,3 hPa 0,0 l/m 0,1 km/h N 12,0 C 16,6 C 2,4 km/h
05.08.2010 01:00 15,8 C 76 % 1008,7 hPa 0,0 l/m 0,1 km/h N 11,6 C 15,8 C 2,0 km/h
05.08.2010 02:00 15,1 C 79 % 1008,3 hPa 0,0 l/m 0,0 km/h N 11,4 C 15,1 C 1,2 km/h
05.08.2010 03:00 14,4 C 80 % 1008,2 hPa 0,0 l/m 0,0 km/h N 10,9 C 14,4 C 0,0 km/h
05.08.2010 04:00 13,6 C 82 % 1007,9 hPa 0,0 l/m 0,1 km/h N 10,6 C 13,6 C 1,6 km/h
05.08.2010 05:00 13,2 C 83 % 1008,0 hPa 0,0 l/m 0,0 km/h N 10,4 C 13,2 C 0,4 km/h
05.08.2010 06:00 12,9 C 85 % 1008,5 hPa 0,0 l/m 0,0 km/h N 10,3 C 12,9 C 1,2 km/h
05.08.2010 07:00 13,7 C 87 % 1008,3 hPa 0,0 l/m 0,0 km/h N 11,5 C 13,7 C 0,4 km/h
05.08.2010 08:00 15,5 C 87 % 1008,3 hPa 0,0 l/m 0,0 km/h N 13,3 C 15,5 C 0,8 km/h
05.08.2010 09:00 17,8 C 79 % 1008,0 hPa 0,0 l/m 0,9 km/h S-SW 14,1 C 17,8 C 6,4 km/h
05.08.2010 10:00 20,2 C 73 % 1007,6 hPa 0,0 l/m 0,6 km/h O-SO 15,1 C 20,2 C 2,8 km/h
05.08.2010 11:00 22,9 C 62 % 1007,2 hPa 0,0 l/m 0,8 km/h O 15,1 C 22,9 C 3,6 km/h
05.08.2010 12:00 24,4 C 55 % 1006,7 hPa 0,0 l/m 1,9 km/h O 14,8 C 24,4 C 6,8 km/h
05.08.2010 13:00 24,4 C 55 % 1006,6 hPa 0,0 l/m 1,7 km/h NO 14,5 C 24,4 C 7,2 km/h
05.08.2010 14:00 24,8 C 48 % 1006,5 hPa 0,0 l/m 1,1 km/h SO 13,1 C 24,8 C 6,0 km/h
05.08.2010 15:00 24,4 C 53 % 1006,4 hPa 0,0 l/m 1,0 km/h SO 14,2 C 24,4 C 5,2 km/h
05.08.2010 16:00 24,4 C 55 % 1006,2 hPa 0,0 l/m 1,1 km/h O 14,8 C 24,4 C 6,0 km/h
05.08.2010 17:00 24,4 C 54 % 1005,9 hPa 0,0 l/m 0,1 km/h N 14,5 C 24,4 C 2,0 km/h
05.08.2010 18:00 23,6 C 57 % 1005,6 hPa 0,0 l/m 0,0 km/h N 14,6 C 23,6 C 0,8 km/h
05.08.2010 19:00 23,2 C 61 % 1005,3 hPa 0,0 l/m 0,0 km/h N 15,3 C 23,2 C 0,0 km/h
05.08.2010 20:00 22,6 C 66 % 1005,3 hPa 0,0 l/m 0,0 km/h N 15,8 C 22,6 C 0,4 km/h
05.08.2010 21:00 21,3 C 72 % 1005,8 hPa 0,0 l/m 0,0 km/h N 16,0 C 21,3 C 0,0 km/h
05.08.2010 22:00 20,1 C 77 % 1005,8 hPa 0,0 l/m 0,0 km/h N 15,9 C 20,1 C 0,0 km/h
05.08.2010 23:00 19,8 C 80 % 1005,9 hPa 0,0 l/m 0,0 km/h N 16,1 C 19,8 C 0,4 km/h
06.08.2010 00:00 19,5 C 82 % 1005,6 hPa 0,0 l/m 0,0 km/h N 16,3 C 19,5 C 0,0 km/h
06.08.2010 01:00 19,1 C 83 % 1006,3 hPa 19,5 l/m 2,7 km/h W 16,2 C 19,0 C 10,4 km/h
06.08.2010 02:00 17,7 C 86 % 1005,6 hPa 3,9 l/m 0,9 km/h NW 15,3 C 17,7 C 4,8 km/h
06.08.2010 03:00 17,6 C 88 % 1006,0 hPa 1,3 l/m 0,1 km/h N 15,5 C 17,6 C 1,2 km/h
06.08.2010 04:00 17,6 C 88 % 1006,2 hPa 0,0 l/m 0,0 km/h N 15,6 C 17,6 C 0,8 km/h
06.08.2010 05:00 17,4 C 88 % 1006,7 hPa 0,0 l/m 0,0 km/h N 15,4 C 17,4 C 0,8 km/h
06.08.2010 06:00 17,0 C 88 % 1007,0 hPa 0,3 l/m 0,5 km/h N 15,0 C 17,0 C 4,4 km/h
06.08.2010 07:00 16,3 C 88 % 1007,8 hPa 0,3 l/m 0,4 km/h SW 14,3 C 16,3 C 4,0 km/h
06.08.2010 08:00 15,8 C 88 % 1008,3 hPa 0,5 l/m 2,8 km/h SW 13,8 C 15,8 C 12,9 km/h
06.08.2010 09:00 15,8 C 87 % 1008,5 hPa 0,8 l/m 3,3 km/h S-SW 13,6 C 15,8 C 18,9 km/h
06.08.2010 10:00 16,9 C 85 % 1009,2 hPa 0,0 l/m 5,0 km/h W-NW 14,3 C 16,9 C 17,7 km/h
06.08.2010 11:00 17,9 C 79 % 1009,8 hPa 0,0 l/m 4,1 km/h SW 14,2 C 17,9 C 19,3 km/h
06.08.2010 12:00 19,0 C 74 % 1009,9 hPa 0,0 l/m 4,2 km/h W-SW 14,2 C 19,0 C 17,7 km/h
06.08.2010 13:00 21,0 C 68 % 1009,9 hPa 0,0 l/m 4,6 km/h S-SW 14,7 C 21,0 C 16,5 km/h
06.08.2010 14:00 20,5 C 67 % 1010,1 hPa 0,0 l/m 4,6 km/h SW 14,0 C 20,5 C 19,7 km/h
06.08.2010 15:00 21,5 C 64 % 1010,1 hPa 0,0 l/m 6,0 km/h SW 14,2 C 21,4 C 21,3 km/h
06.08.2010 16:00 20,7 C 63 % 1010,3 hPa 0,0 l/m 5,9 km/h S-SO 13,4 C 20,6 C 18,5 km/h
06.08.2010 17:00 19,5 C 65 % 1011,0 hPa 0,0 l/m 6,2 km/h W-NW 12,7 C 19,4 C 23,7 km/h
06.08.2010 18:00 18,9 C 66 % 1010,9 hPa 0,0 l/m 7,1 km/h S-SW 12,4 C 18,4 C 30,2 km/h
06.08.2010 19:00 18,0 C 67 % 1011,2 hPa 0,0 l/m 7,8 km/h W-NW 11,9 C 17,4 C 25,3 km/h
06.08.2010 20:00 17,3 C 70 % 1012,2 hPa 0,0 l/m 6,7 km/h W-SW 11,7 C 17,1 C 24,9 km/h
06.08.2010 21:00 17,1 C 69 % 1012,8 hPa 0,0 l/m 7,2 km/h SW 11,4 C 16,7 C 26,5 km/h
06.08.2010 22:00 16,8 C 72 % 1013,0 hPa 0,0 l/m 7,8 km/h W-SW 11,6 C 16,0 C 32,6 km/h
06.08.2010 23:00 16,2 C 75 % 1012,6 hPa 0,0 l/m 6,1 km/h SW 11,8 C 16,2 C 26,1 km/h
07.08.2010 00:00 16,2 C 75 % 1012,5 hPa 0,0 l/m 6,4 km/h S-SO 11,8 C 15,8 C 27,4 km/h
07.08.2010 01:00 15,8 C 79 % 1012,4 hPa 0,3 l/m 7,6 km/h S 12,1 C 15,2 C 26,1 km/h
07.08.2010 02:00 15,1 C 82 % 1012,1 hPa 0,3 l/m 5,6 km/h S 12,1 C 15,1 C 21,7 km/h
07.08.2010 03:00 15,3 C 81 % 1012,2 hPa 0,0 l/m 6,5 km/h N-NO 12,1 C 15,1 C 27,0 km/h
07.08.2010 04:00 15,6 C 80 % 1012,2 hPa 0,0 l/m 5,8 km/h O 12,1 C 15,6 C 23,7 km/h
07.08.2010 05:00 15,5 C 80 % 1012,3 hPa 0,0 l/m 6,3 km/h W 12,1 C 15,4 C 24,1 km/h
07.08.2010 06:00 15,7 C 79 % 1012,8 hPa 0,3 l/m 6,5 km/h SO 12,0 C 15,4 C 25,4 km/h
07.08.2010 07:00 15,3 C 82 % 1012,8 hPa 1,3 l/m 8,0 km/h W-NW 12,1 C 14,3 C 25,3 km/h
07.08.2010 08:00 14,9 C 84 % 1013,1 hPa 0,8 l/m 6,8 km/h W-SW 12,2 C 14,5 C 27,8 km/h
07.08.2010 09:00 15,5 C 82 % 1013,2 hPa 0,0 l/m 7,4 km/h S-SW 12,4 C 14,9 C 26,9 km/h
07.08.2010 10:00 16,3 C 79 % 1013,5 hPa 0,0 l/m 6,5 km/h W-SW 12,5 C 16,1 C 22,5 km/h
07.08.2010 11:00 16,5 C 78 % 1013,8 hPa 0,0 l/m 6,6 km/h W-SW 12,6 C 16,2 C 22,1 km/h
07.08.2010 12:00 17,3 C 78 % 1013,9 hPa 0,0 l/m 4,7 km/h W-SW 13,4 C 17,3 C 19,3 km/h
07.08.2010 13:00 17,7 C 75 % 1014,0 hPa 0,0 l/m 6,7 km/h SW 13,1 C 17,4 C 22,9 km/h
07.08.2010 14:00 16,6 C 80 % 1014,5 hPa 1,0 l/m 4,7 km/h S-SO 13,2 C 16,6 C 19,7 km/h
07.08.2010 15:00 16,2 C 83 % 1014,9 hPa 1,3 l/m 1,5 km/h N 13,4 C 16,2 C 9,7 km/h
07.08.2010 16:00 16,2 C 85 % 1015,0 hPa 0,8 l/m 0,3 km/h S-SO 13,6 C 16,2 C 3,6 km/h
07.08.2010 17:00 16,0 C 85 % 1014,8 hPa 0,5 l/m 2,4 km/h S 13,5 C 16,0 C 11,7 km/h
07.08.2010 18:00 15,8 C 84 % 1014,7 hPa 0,0 l/m 4,7 km/h S-SO 13,2 C 15,8 C 21,7 km/h
07.08.2010 19:00 15,9 C 84 % 1014,8 hPa 0,0 l/m 4,9 km/h S-SW 13,1 C 15,9 C 23,3 km/h
07.08.2010 20:00 16,1 C 84 % 1015,3 hPa 0,5 l/m 3,5 km/h S-SW 13,3 C 16,1 C 19,3 km/h
07.08.2010 21:00 16,0 C 84 % 1015,8 hPa 0,0 l/m 1,6 km/h SW 13,3 C 16,0 C 13,7 km/h
07.08.2010 22:00 16,1 C 84 % 1016,1 hPa 0,0 l/m 2,2 km/h SW 13,3 C 16,1 C 14,1 km/h
07.08.2010 23:00 16,4 C 82 % 1016,1 hPa 0,0 l/m 2,5 km/h S-SO 13,3 C 16,4 C 17,3 km/h
08.08.2010 00:00 16,4 C 83 % 1015,9 hPa 0,0 l/m 2,3 km/h O-SO 13,5 C 16,4 C 14,5 km/h
08.08.2010 01:00 16,5 C 83 % 1015,9 hPa 0,0 l/m 3,7 km/h O-SO 13,6 C 16,5 C 18,9 km/h
08.08.2010 02:00 16,4 C 84 % 1015,7 hPa 0,0 l/m 3,6 km/h SW 13,7 C 16,4 C 16,1 km/h
08.08.2010 03:00 16,5 C 83 % 1015,4 hPa 0,0 l/m 3,5 km/h SW 13,6 C 16,5 C 16,9 km/h
08.08.2010 04:00 16,9 C 81 % 1015,4 hPa 0,0 l/m 2,3 km/h SW 13,6 C 16,9 C 17,7 km/h
08.08.2010 05:00 17,1 C 79 % 1015,9 hPa 0,0 l/m 1,7 km/h SW 13,4 C 17,1 C 11,7 km/h
08.08.2010 06:00 17,2 C 77 % 1016,1 hPa 0,0 l/m 1,4 km/h SO 13,0 C 17,2 C 9,3 km/h
08.08.2010 07:00 17,5 C 74 % 1016,3 hPa 0,0 l/m 2,2 km/h O 12,8 C 17,5 C 9,3 km/h
08.08.2010 08:00 18,1 C 71 % 1016,5 hPa 0,0 l/m 2,0 km/h W 12,8 C 18,1 C 7,2 km/h
08.08.2010 09:00 19,3 C 68 % 1016,4 hPa 0,0 l/m 3,3 km/h NW 13,2 C 19,3 C 11,3 km/h
08.08.2010 10:00 20,9 C 63 % 1016,6 hPa 0,0 l/m 4,0 km/h NW 13,5 C 20,9 C 13,7 km/h
08.08.2010 11:00 23,1 C 56 % 1016,7 hPa 0,0 l/m 4,7 km/h O-SO 13,8 C 23,1 C 12,5 km/h
08.08.2010 12:00 24,2 C 53 % 1016,5 hPa 0,0 l/m 2,0 km/h NO 13,8 C 24,2 C 8,8 km/h
08.08.2010 13:00 24,5 C 52 % 1016,5 hPa 0,0 l/m 2,6 km/h NW 14,0 C 24,5 C 7,6 km/h
08.08.2010 14:00 25,7 C 49 % 1016,2 hPa 0,0 l/m 2,7 km/h O-SO 14,2 C 25,7 C 11,3 km/h
08.08.2010 15:00 25,6 C 49 % 1015,9 hPa 0,0 l/m 3,4 km/h NW 13,9 C 25,6 C 9,6 km/h
08.08.2010 16:00 26,7 C 46 % 1015,4 hPa 0,0 l/m 2,6 km/h NW 14,0 C 26,7 C 7,2 km/h
08.08.2010 17:00 27,6 C 44 % 1015,0 hPa 0,0 l/m 1,3 km/h SW 14,1 C 27,6 C 5,6 km/h
08.08.2010 18:00 26,0 C 49 % 1015,3 hPa 0,0 l/m 0,6 km/h N 14,4 C 26,0 C 4,4 km/h
08.08.2010 19:00 24,0 C 56 % 1015,6 hPa 0,0 l/m 0,4 km/h N 14,7 C 24,0 C 3,6 km/h
08.08.2010 20:00 22,6 C 63 % 1015,6 hPa 0,0 l/m 0,1 km/h N 15,2 C 22,6 C 1,6 km/h
08.08.2010 21:00 20,5 C 71 % 1016,0 hPa 0,0 l/m 0,0 km/h N 15,1 C 20,5 C 1,6 km/h
08.08.2010 22:00 19,1 C 75 % 1016,1 hPa 0,0 l/m 0,1 km/h N 14,5 C 19,1 C 2,0 km/h
08.08.2010 23:00 18,6 C 77 % 1016,2 hPa 0,0 l/m 0,1 km/h N 14,5 C 18,6 C 3,2 km/h
Min-Datum _ 05.08.10 04.08.10 05.08.10 - 02.08.10 - 05.08.10 05.08.10 02.08.10
_ Min-Zeit 06:15 17:15 20:00 - 00:00 - 06:15 06:15 00:00
Minimum _ 12,8 C 42 % 1005,0 hPa - 0,0 km/h - 10,2 C 12,8 C 0,0 km/h
Max-Datum _ 02.08.10 06.08.10 08.08.10 06.08.10 07.08.10 - 02.08.10 02.08.10 06.08.10
_ Max-Zeit 14:15 03:30 10:15 01:30 01:30 - 13:15 13:30 22:15
Maximum _ 31,3 C 88 % 1016,7 hPa 19,5 l/m 9,3 km/h
S
- 20,3 C 31,2 C 41,8 km/h
W-SW
Durchschnitt _ 19,8 C 71 % 1011,6 hPa #34,8 l/m 2,6 km/h NW 14,2 C 19,8 C 10,7 km/h